Time;durP1;ratioP1;P1;durP2;ratioP2;P2;SDS_P1;SDS_P2;PMS_P1;PMS_P2;Temp;Humidity;BMP_temperature;BMP_pressure;BME280_temperature;BME280_humidity;BME280_pressure;Samples;Min_cycle;Max_cycle;Signal;HPM_P1;HPM_P2
2021/09/28 00:02:00;;;;;;;18.13;13.05;;;15.00;99.90;;;;;;4999644;28;20061;-86
2021/09/28 00:04:26;;;;;;;16.58;12.05;;;15.10;99.90;;;;;;4999077;28;20041;-86
2021/09/28 00:07:11;;;;;;;24.52;14.77;;;15.00;99.90;;;;;;5001563;28;20064;-86
2021/09/28 00:09:38;;;;;;;18.55;13.10;;;15.00;99.90;;;;;;4999273;28;20045;-86
2021/09/28 00:12:05;;;;;;;15.18;13.10;;;15.00;99.90;;;;;;4998940;28;20064;-86
2021/09/28 00:14:32;;;;;;;22.15;13.75;;;15.00;99.90;;;;;;5000649;28;20499;-86
2021/09/28 00:16:59;;;;;;;23.38;13.60;;;15.00;99.90;;;;;;5017392;28;20467;-86
2021/09/28 00:19:26;;;;;;;21.25;14.00;;;14.90;99.90;;;;;;5000022;28;20050;-85
2021/09/28 00:21:52;;;;;;;20.48;14.00;;;14.90;99.90;;;;;;5015969;28;20045;-86
2021/09/28 00:24:19;;;;;;;17.75;12.98;;;14.90;99.90;;;;;;4998863;28;20072;-86
2021/09/28 00:26:46;;;;;;;17.95;12.07;;;14.90;99.90;;;;;;5014818;28;20050;-86
2021/09/28 00:29:13;;;;;;;16.45;12.55;;;14.80;99.90;;;;;;5015764;28;20132;-86
2021/09/28 00:31:40;;;;;;;19.65;13.75;;;14.90;99.90;;;;;;4998658;28;20046;-86
2021/09/28 00:34:07;;;;;;;20.50;14.00;;;14.90;99.90;;;;;;4998786;28;20108;-86
2021/09/28 00:36:33;;;;;;;17.25;12.88;;;15.00;99.90;;;;;;4998536;28;20046;-85
2021/09/28 00:39:00;;;;;;;15.90;12.82;;;14.90;99.90;;;;;;5015945;28;20050;-86
2021/09/28 00:41:27;;;;;;;17.73;12.10;;;14.90;99.90;;;;;;4998286;28;20049;-85
2021/09/28 00:43:55;;;;;;;32.45;15.80;;;15.00;99.90;;;;;;4998230;28;20056;-86
2021/09/28 00:46:23;;;;;;;16.65;13.88;;;14.90;99.90;;;;;;5015550;28;20570;-85
2021/09/28 00:48:51;;;;;;;29.92;16.17;;;14.80;99.90;;;;;;5015515;28;20042;-86
2021/09/28 00:51:19;;;;;;;20.45;12.30;;;14.90;99.90;;;;;;5015449;28;20064;-85
2021/09/28 00:53:49;;;;;;;25.73;14.60;;;14.90;99.90;;;;;;4998328;28;20042;-86
2021/09/28 00:56:18;;;;;;;26.92;15.30;;;14.90;99.90;;;;;;4998168;28;20046;-85
2021/09/28 00:58:45;;;;;;;17.38;12.25;;;14.90;99.90;;;;;;4997962;28;20119;-86
2021/09/28 01:01:14;;;;;;;18.02;12.85;;;15.00;99.90;;;;;;4997896;28;20552;-85
2021/09/28 01:03:41;;;;;;;15.95;12.27;;;15.00;99.90;;;;;;4997902;28;20056;-85
2021/09/28 01:06:08;;;;;;;21.60;13.55;;;15.00;99.90;;;;;;4997703;28;20053;-85
2021/09/28 01:08:35;;;;;;;20.70;12.10;;;15.00;99.90;;;;;;4998010;28;20410;-85
2021/09/28 01:11:03;;;;;;;22.13;14.05;;;15.00;99.90;;;;;;4997581;28;20070;-85
2021/09/28 01:13:30;;;;;;;19.73;11.65;;;15.00;99.90;;;;;;4997850;28;20136;-86
2021/09/28 01:16:00;;;;;;;16.75;10.93;;;15.00;99.90;;;;;;5014964;28;20054;-86
2021/09/28 01:18:28;;;;;;;15.73;11.60;;;15.00;99.90;;;;;;4997708;28;20096;-86
2021/09/28 01:20:56;;;;;;;14.90;11.68;;;15.00;99.90;;;;;;4997555;28;20056;-86
2021/09/28 01:23:23;;;;;;;16.73;11.43;;;15.00;99.90;;;;;;5014700;28;20129;-85
2021/09/28 01:25:49;;;;;;;17.40;11.57;;;15.00;99.90;;;;;;4997666;28;20081;-86
2021/09/28 01:28:16;;;;;;;21.17;12.63;;;15.10;99.90;;;;;;5015072;28;20125;-86
2021/09/28 01:30:44;;;;;;;16.38;10.82;;;15.00;99.90;;;;;;5014842;28;20120;-88
2021/09/28 01:33:12;;;;;;;9.02;7.22;;;15.00;99.90;;;;;;4999049;28;20092;-88
2021/09/28 01:35:40;;;;;;;3.83;3.45;;;15.00;99.90;;;;;;5034168;28;20109;-87
2021/09/28 01:38:07;;;;;;;5.70;4.10;;;15.00;99.90;;;;;;4999636;28;20129;-87
2021/09/28 01:40:34;;;;;;;2.55;2.35;;;15.00;99.90;;;;;;4997407;28;20052;-87
2021/09/28 01:43:06;;;;;;;3.42;2.20;;;15.00;99.90;;;;;;4997196;28;20140;-85
2021/09/28 01:45:33;;;;;;;2.03;1.70;;;14.90;99.90;;;;;;5014248;28;20046;-86
2021/09/28 01:48:00;;;;;;;4.50;1.80;;;14.90;99.90;;;;;;5014350;28;20058;-85
2021/09/28 01:50:27;;;;;;;11.93;2.00;;;14.90;99.90;;;;;;5014384;28;20048;-88
2021/09/28 01:52:54;;;;;;;7.95;1.80;;;14.90;99.90;;;;;;5014511;28;20418;-86
2021/09/28 01:55:21;;;;;;;4.78;2.00;;;14.90;99.90;;;;;;4997098;28;20133;-86
2021/09/28 01:57:47;;;;;;;5.97;1.77;;;14.80;99.90;;;;;;4996894;28;20505;-87
2021/09/28 02:00:14;;;;;;;2.33;1.10;;;14.80;99.90;;;;;;4996830;28;20085;-85
2021/09/28 02:02:41;;;;;;;1.50;1.02;;;14.90;99.90;;;;;;4996554;28;20052;-84
2021/09/28 02:05:08;;;;;;;8.70;2.00;;;14.90;99.90;;;;;;4996773;28;20050;-86
2021/09/28 02:07:35;;;;;;;4.00;1.58;;;14.80;99.90;;;;;;4996691;28;20046;-85
2021/09/28 02:10:03;;;;;;;2.78;1.48;;;14.80;99.90;;;;;;5013913;28;20152;-85
2021/09/28 02:12:30;;;;;;;18.98;3.63;;;14.80;99.90;;;;;;4996926;28;20060;-87
2021/09/28 02:14:56;;;;;;;6.88;1.90;;;14.80;99.90;;;;;;4996666;28;20056;-86
2021/09/28 02:17:23;;;;;;;2.33;1.27;;;14.70;99.90;;;;;;4996819;28;20134;-89
2021/09/28 02:19:50;;;;;;;3.72;1.90;;;14.70;99.90;;;;;;5014067;28;20056;-89
2021/09/28 02:22:17;;;;;;;5.03;2.03;;;14.50;99.90;;;;;;4996957;28;20060;-89
2021/09/28 02:24:44;;;;;;;3.47;1.88;;;14.40;99.90;;;;;;4996779;28;20060;-89
2021/09/28 02:27:10;;;;;;;6.35;1.98;;;14.20;99.90;;;;;;4996404;28;20523;-88
2021/09/28 02:29:37;;;;;;;6.03;2.47;;;14.10;99.90;;;;;;5014130;28;20464;-88
2021/09/28 02:32:05;;;;;;;6.05;2.42;;;14.10;99.90;;;;;;4996600;28;20113;-88
2021/09/28 02:34:35;;;;;;;4.00;1.83;;;14.00;99.90;;;;;;4996528;28;20042;-88
2021/09/28 02:37:03;;;;;;;6.30;2.28;;;14.00;99.90;;;;;;4996583;28;20072;-88
2021/09/28 02:39:31;;;;;;;7.40;2.53;;;14.00;99.90;;;;;;5013852;28;20045;-87
2021/09/28 02:41:57;;;;;;;2.42;2.22;;;14.00;99.90;;;;;;4996255;28;20057;-87
2021/09/28 02:44:24;;;;;;;3.08;2.50;;;13.90;99.90;;;;;;4996563;28;20050;-88
2021/09/28 02:46:51;;;;;;;5.45;2.58;;;13.90;99.90;;;;;;5013759;28;20474;-88
2021/09/28 02:49:18;;;;;;;2.78;2.28;;;13.80;99.90;;;;;;5013168;28;20068;-87
2021/09/28 02:51:45;;;;;;;2.80;2.60;;;13.70;99.90;;;;;;5014213;28;20046;-87
2021/09/28 02:54:12;;;;;;;4.13;2.78;;;13.70;99.90;;;;;;5009259;28;20046;-87
2021/09/28 02:56:39;;;;;;;3.70;2.83;;;13.70;99.90;;;;;;4999669;28;20400;-88
2021/09/28 02:59:05;;;;;;;5.55;3.15;;;13.60;99.90;;;;;;4996334;28;20056;-87
2021/09/28 03:01:32;;;;;;;3.33;2.80;;;13.60;99.90;;;;;;4996399;28;20053;-87
2021/09/28 03:03:59;;;;;;;3.75;3.22;;;13.60;99.90;;;;;;4996613;28;20070;-87
2021/09/28 03:06:26;;;;;;;6.97;3.70;;;13.60;99.90;;;;;;5013649;28;20085;-87
2021/09/28 03:08:53;;;;;;;3.50;3.28;;;13.70;99.90;;;;;;5013670;28;20072;-87
2021/09/28 03:11:20;;;;;;;4.07;2.97;;;13.60;99.90;;;;;;4996203;28;20487;-87
2021/09/28 03:13:46;;;;;;;7.03;3.50;;;13.70;99.90;;;;;;4996305;28;20052;-87
2021/09/28 03:16:13;;;;;;;4.85;2.70;;;13.60;99.90;;;;;;4996213;28;20071;-87
2021/09/28 03:18:40;;;;;;;2.75;2.50;;;13.60;99.90;;;;;;5013832;28;20065;-86
2021/09/28 03:21:07;;;;;;;2.50;2.30;;;13.60;99.90;;;;;;5013337;28;20058;-87
2021/09/28 03:23:34;;;;;;;5.25;2.65;;;13.60;99.90;;;;;;5013782;28;20050;-88
2021/09/28 03:26:00;;;;;;;5.10;2.90;;;13.50;99.90;;;;;;4996184;28;20414;-88
2021/09/28 03:28:27;;;;;;;4.45;2.85;;;13.50;99.90;;;;;;4996309;28;20046;-88
2021/09/28 03:30:54;;;;;;;6.22;2.90;;;13.60;99.90;;;;;;4996303;28;20046;-88
2021/09/28 03:33:21;;;;;;;4.65;2.58;;;13.50;99.90;;;;;;4996503;28;20053;-89
2021/09/28 03:35:48;;;;;;;3.72;2.50;;;13.50;99.90;;;;;;4996087;28;20050;-90
2021/09/28 03:38:15;;;;;;;4.22;2.30;;;13.60;99.90;;;;;;4996104;28;20060;-90
2021/09/28 03:40:42;;;;;;;4.38;2.83;;;13.50;99.90;;;;;;4996064;28;20050;-90
2021/09/28 03:43:08;;;;;;;3.20;2.90;;;13.50;99.90;;;;;;5013037;28;20478;-89
2021/09/28 03:45:36;;;;;;;4.85;3.05;;;13.50;99.90;;;;;;5013144;28;20046;-89
2021/09/28 03:48:04;;;;;;;4.88;3.45;;;13.40;99.90;;;;;;4995978;28;20113;-88
2021/09/28 03:50:32;;;;;;;5.18;3.20;;;13.40;99.90;;;;;;4996088;28;20056;-88
2021/09/28 03:53:01;;;;;;;3.30;3.00;;;13.40;99.90;;;;;;5013067;28;20046;-89
2021/09/28 03:55:28;;;;;;;5.40;3.20;;;13.40;99.90;;;;;;4995762;28;20053;-89
2021/09/28 03:57:54;;;;;;;3.05;2.90;;;13.50;99.90;;;;;;5013357;28;20053;-88
2021/09/28 04:00:22;;;;;;;4.40;3.40;;;13.50;99.90;;;;;;4997752;28;20045;-87
2021/09/28 04:02:49;;;;;;;5.03;3.50;;;13.40;99.90;;;;;;4999755;28;20052;-88
2021/09/28 04:05:16;;;;;;;3.85;3.45;;;13.40;99.90;;;;;;4999766;28;20056;-88
2021/09/28 04:07:43;;;;;;;3.42;3.10;;;13.40;99.90;;;;;;4999925;28;20132;-88
2021/09/28 04:10:10;;;;;;;4.38;3.58;;;13.40;99.90;;;;;;4999896;28;20060;-88
2021/09/28 04:12:37;;;;;;;3.80;2.97;;;13.40;99.90;;;;;;5017935;28;20056;-87
2021/09/28 04:15:05;;;;;;;3.42;2.80;;;13.40;99.90;;;;;;5002886;28;20129;-87
2021/09/28 04:17:32;;;;;;;3.30;2.85;;;13.40;99.90;;;;;;5016627;28;20058;-87
2021/09/28 04:19:59;;;;;;;2.92;2.72;;;13.40;99.90;;;;;;5016929;28;20078;-87
2021/09/28 04:22:27;;;;;;;2.80;2.60;;;13.30;99.90;;;;;;5016680;28;20054;-87
2021/09/28 04:24:55;;;;;;;5.03;2.85;;;13.20;99.90;;;;;;4999118;28;20053;-86
2021/09/28 04:27:21;;;;;;;4.35;3.10;;;13.20;99.90;;;;;;4999393;28;20491;-86
2021/09/28 04:29:48;;;;;;;4.45;3.75;;;13.20;99.90;;;;;;4999605;28;20435;-86
2021/09/28 04:32:15;;;;;;;3.30;2.97;;;13.20;99.90;;;;;;4999347;28;20049;-86
2021/09/28 04:34:42;;;;;;;4.72;3.30;;;13.20;99.90;;;;;;5016600;28;20077;-87
2021/09/28 04:37:11;;;;;;;5.55;3.13;;;13.20;99.90;;;;;;5015139;28;20505;-87
2021/09/28 04:39:38;;;;;;;3.83;3.45;;;13.20;99.90;;;;;;4998852;28;20467;-87
2021/09/28 04:42:05;;;;;;;3.45;3.15;;;13.20;99.90;;;;;;4998752;28;20088;-87
2021/09/28 04:44:32;;;;;;;6.25;3.40;;;13.20;99.90;;;;;;4998549;28;20129;-87
2021/09/28 04:46:59;;;;;;;3.22;2.92;;;13.10;99.90;;;;;;4999763;28;20483;-88
2021/09/28 04:49:25;;;;;;;3.65;3.35;;;13.20;99.90;;;;;;4998804;28;20049;-86
2021/09/28 04:51:52;;;;;;;3.10;2.90;;;13.20;99.90;;;;;;4998824;28;20081;-87
2021/09/28 04:54:19;;;;;;;3.60;3.40;;;13.20;99.90;;;;;;4998838;28;20509;-87
2021/09/28 04:56:46;;;;;;;2.70;2.50;;;13.20;99.90;;;;;;4998490;28;20057;-87
2021/09/28 04:59:12;;;;;;;4.15;3.47;;;13.00;99.90;;;;;;4998529;28;20054;-87
2021/09/28 05:01:41;;;;;;;6.57;3.28;;;13.00;99.90;;;;;;4998569;28;20129;-88
2021/09/28 05:04:08;;;;;;;5.13;3.78;;;13.00;99.90;;;;;;4998538;28;20511;-88
2021/09/28 05:06:34;;;;;;;12.27;4.93;;;13.00;99.90;;;;;;4998468;28;20495;-87
2021/09/28 05:09:01;;;;;;;14.50;5.03;;;12.90;99.90;;;;;;5015467;28;20060;-87
2021/09/28 05:11:28;;;;;;;16.75;4.57;;;12.80;99.90;;;;;;4997274;28;20062;-86
2021/09/28 05:13:55;;;;;;;13.77;4.85;;;12.80;99.90;;;;;;5015201;28;20050;-87
2021/09/28 05:16:22;;;;;;;18.13;5.32;;;12.80;99.90;;;;;;4998129;28;20510;-87
2021/09/28 05:18:49;;;;;;;18.92;6.65;;;12.80;99.90;;;;;;4998037;28;20049;-86
2021/09/28 05:21:17;;;;;;;12.85;4.85;;;12.80;99.90;;;;;;4997934;28;20050;-86
2021/09/28 05:23:47;;;;;;;9.50;5.35;;;12.90;99.90;;;;;;4997945;28;20319;-86
2021/09/28 05:26:14;;;;;;;5.55;4.95;;;12.90;99.90;;;;;;4997751;28;20086;-86
2021/09/28 05:28:41;;;;;;;5.65;5.03;;;12.90;99.90;;;;;;5015405;28;20042;-86
2021/09/28 05:31:09;;;;;;;4.50;4.13;;;13.00;99.90;;;;;;5010880;28;20034;-86
2021/09/28 05:33:36;;;;;;;5.07;3.67;;;13.00;99.90;;;;;;5005681;28;20479;-86
2021/09/28 05:36:04;;;;;;;4.80;4.28;;;12.90;99.90;;;;;;5014824;28;20045;-86
2021/09/28 05:38:30;;;;;;;4.90;4.50;;;13.00;99.90;;;;;;4997102;28;20049;-87
2021/09/28 05:40:58;;;;;;;5.05;4.65;;;12.90;99.90;;;;;;4997064;28;20137;-86
2021/09/28 05:43:25;;;;;;;6.03;4.47;;;12.90;99.90;;;;;;5014599;28;20130;-86
2021/09/28 05:45:52;;;;;;;6.60;5.32;;;12.90;99.90;;;;;;4997642;28;20081;-86
2021/09/28 05:48:19;;;;;;;6.90;5.20;;;13.00;99.90;;;;;;5014643;28;20076;-86
2021/09/28 05:50:47;;;;;;;10.75;6.60;;;12.90;99.90;;;;;;4997489;28;20046;-86
2021/09/28 05:53:14;;;;;;;10.02;6.25;;;12.90;99.90;;;;;;4997251;28;20046;-86
2021/09/28 05:55:41;;;;;;;17.42;7.38;;;12.90;99.90;;;;;;5014324;28;20054;-86
2021/09/28 05:58:08;;;;;;;11.00;6.70;;;12.90;99.90;;;;;;4997340;28;20050;-87
2021/09/28 06:00:35;;;;;;;6.78;5.95;;;12.80;99.90;;;;;;4997219;28;20054;-87
2021/09/28 06:03:03;;;;;;;7.95;6.40;;;12.90;99.90;;;;;;4997190;28;20085;-87
2021/09/28 06:05:30;;;;;;;8.90;6.03;;;12.90;99.90;;;;;;5001364;28;20052;-87
2021/09/28 06:07:57;;;;;;;12.27;6.45;;;12.90;99.90;;;;;;5003653;28;20057;-86
2021/09/28 06:10:24;;;;;;;8.13;6.53;;;12.90;99.90;;;;;;4997062;28;20060;-87
2021/09/28 06:12:50;;;;;;;8.45;6.97;;;13.00;99.90;;;;;;4996848;28;20053;-86
2021/09/28 06:15:17;;;;;;;7.47;6.32;;;13.00;99.90;;;;;;4996502;28;20056;-86
2021/09/28 06:17:44;;;;;;;10.90;6.60;;;12.90;99.90;;;;;;4996989;28;20273;-86
2021/09/28 06:20:11;;;;;;;8.82;6.00;;;13.00;99.90;;;;;;5013782;28;20533;-86
2021/09/28 06:22:38;;;;;;;10.25;5.72;;;13.00;99.90;;;;;;4996413;28;20057;-87
2021/09/28 06:25:06;;;;;;;6.47;5.88;;;13.10;99.90;;;;;;4995809;28;20166;-86
2021/09/28 06:27:32;;;;;;;6.40;5.95;;;13.10;99.90;;;;;;4997033;28;20053;-87
2021/09/28 06:29:59;;;;;;;9.25;6.55;;;13.10;99.90;;;;;;5005716;28;20466;-86
2021/09/28 06:32:30;;;;;;;7.80;5.70;;;13.10;99.90;;;;;;5030244;28;20053;-87
2021/09/28 06:34:58;;;;;;;7.30;6.60;;;13.10;99.90;;;;;;5015604;28;20054;-86
2021/09/28 06:37:24;;;;;;;15.75;7.50;;;13.10;99.90;;;;;;5032896;28;20053;-86
2021/09/28 06:39:51;;;;;;;6.80;6.10;;;13.20;99.90;;;;;;5049117;28;20444;-86
2021/09/28 06:42:18;;;;;;;7.80;5.97;;;13.10;99.90;;;;;;5033350;28;20050;-87
2021/09/28 06:44:45;;;;;;;5.60;4.82;;;13.10;99.90;;;;;;5016027;28;20049;-86
2021/09/28 06:47:12;;;;;;;8.27;5.00;;;13.00;99.90;;;;;;5016293;28;20049;-87
2021/09/28 06:49:40;;;;;;;8.48;5.70;;;13.00;99.90;;;;;;5040689;28;20097;-86
2021/09/28 06:52:09;;;;;;;7.45;5.68;;;13.10;99.90;;;;;;5042421;28;20056;-86
2021/09/28 06:54:36;;;;;;;11.65;5.35;;;13.20;99.90;;;;;;5016737;28;20081;-86
2021/09/28 06:57:06;;;;;;;5.28;4.78;;;13.10;99.90;;;;;;5016486;28;20049;-86
2021/09/28 06:59:33;;;;;;;11.18;5.90;;;13.20;99.90;;;;;;5016111;28;20045;-86
2021/09/28 07:02:00;;;;;;;7.15;5.05;;;13.20;99.90;;;;;;5015752;28;20132;-86
2021/09/28 07:04:27;;;;;;;5.97;4.93;;;13.20;99.90;;;;;;5048549;28;20054;-85
2021/09/28 07:06:54;;;;;;;5.55;5.07;;;13.00;99.90;;;;;;5015707;28;20053;-86
2021/09/28 07:09:21;;;;;;;8.93;5.30;;;13.10;99.90;;;;;;5025791;28;20056;-86
2021/09/28 07:11:48;;;;;;;5.78;5.03;;;13.10;99.90;;;;;;4995925;28;20054;-86
2021/09/28 07:14:15;;;;;;;6.10;5.22;;;13.00;99.90;;;;;;4995302;28;20421;-85
2021/09/28 07:16:42;;;;;;;10.43;5.43;;;13.00;99.90;;;;;;4995978;28;20072;-86
2021/09/28 07:19:10;;;;;;;8.50;5.72;;;13.10;99.90;;;;;;4995574;28;20526;-85
2021/09/28 07:21:37;;;;;;;8.50;4.93;;;13.10;99.90;;;;;;4995890;28;20477;-85
2021/09/28 07:24:05;;;;;;;6.13;4.85;;;13.10;99.90;;;;;;4995809;28;20050;-85
2021/09/28 07:26:32;;;;;;;5.60;4.63;;;13.00;99.90;;;;;;4995850;28;20050;-85
2021/09/28 07:28:59;;;;;;;9.60;5.30;;;13.20;99.90;;;;;;4995656;28;20046;-85
2021/09/28 07:31:26;;;;;;;12.18;6.15;;;13.20;99.90;;;;;;5012973;28;20052;-85
2021/09/28 07:33:53;;;;;;;9.50;5.78;;;13.30;99.90;;;;;;5013083;28;20046;-85
2021/09/28 07:36:20;;;;;;;10.75;6.43;;;13.40;99.90;;;;;;4999232;28;20053;-85
2021/09/28 07:38:47;;;;;;;5.85;5.25;;;13.60;99.90;;;;;;5016870;28;20201;-85
2021/09/28 07:41:13;;;;;;;8.57;5.53;;;13.70;99.90;;;;;;4999765;28;20561;-85
2021/09/28 07:43:40;;;;;;;8.52;5.38;;;13.80;99.90;;;;;;4999358;28;20049;-85
2021/09/28 07:46:07;;;;;;;7.45;4.28;;;13.90;99.90;;;;;;5016462;28;20415;-85
2021/09/28 07:48:34;;;;;;;8.98;4.47;;;14.10;99.90;;;;;;5016753;28;20054;-85
2021/09/28 07:51:01;;;;;;;4.65;3.95;;;14.00;99.90;;;;;;4999409;28;20050;-85
2021/09/28 07:53:27;;;;;;;10.27;4.10;;;14.10;99.90;;;;;;4999637;28;20108;-85
2021/09/28 07:55:55;;;;;;;5.85;3.20;;;14.30;99.90;;;;;;4999454;28;20568;-85
2021/09/28 07:58:22;;;;;;;3.47;3.17;;;14.50;99.90;;;;;;5017191;28;20054;-85
2021/09/28 08:00:48;;;;;;;3.83;3.33;;;14.60;99.90;;;;;;5016694;28;20064;-85
2021/09/28 08:03:15;;;;;;;8.07;3.50;;;14.70;99.90;;;;;;5016418;28;20132;-85
2021/09/28 08:05:43;;;;;;;11.63;3.45;;;14.50;99.90;;;;;;5016303;28;20104;-85
2021/09/28 08:08:10;;;;;;;7.05;3.78;;;14.40;99.90;;;;;;5017839;28;20081;-85
2021/09/28 08:10:37;;;;;;;4.72;3.17;;;14.40;99.90;;;;;;5012846;28;20113;-85
2021/09/28 08:13:05;;;;;;;6.45;3.60;;;14.40;99.90;;;;;;4999395;28;20050;-85
2021/09/28 08:15:36;;;;;;;4.28;3.28;;;14.60;99.90;;;;;;4998787;28;20050;-84
2021/09/28 08:18:04;;;;;;;7.85;3.63;;;14.80;99.90;;;;;;4998862;28;20065;-84
2021/09/28 08:20:31;;;;;;;5.10;3.15;;;14.90;99.90;;;;;;5016174;28;20087;-84
2021/09/28 08:22:59;;;;;;;7.90;3.25;;;15.00;99.90;;;;;;4998532;28;20060;-84
2021/09/28 08:25:36;;;;;;;3.95;3.00;;;14.90;99.90;;;;;;5015742;28;20085;-85
2021/09/28 08:30:48;;;;;;;4.95;3.00;;;14.90;99.90;;;;;;5015899;28;20196;-85
2021/09/28 08:33:15;;;;;;;4.13;2.60;;;15.00;99.90;;;;;;4998448;28;20140;-84
2021/09/28 08:35:42;;;;;;;5.93;2.80;;;15.10;99.90;;;;;;4998285;28;20057;-84
2021/09/28 08:38:09;;;;;;;5.63;2.83;;;15.10;99.90;;;;;;4998449;28;20054;-84
2021/09/28 08:40:37;;;;;;;5.28;4.05;;;15.10;99.90;;;;;;4998736;28;20053;-84
2021/09/28 08:43:04;;;;;;;7.55;4.95;;;15.10;99.90;;;;;;4998183;28;20073;-83
2021/09/28 08:45:31;;;;;;;4.15;2.72;;;14.90;99.90;;;;;;5015361;28;20048;-84
2021/09/28 08:47:58;;;;;;;4.57;2.53;;;14.90;99.90;;;;;;4997008;28;20491;-84
2021/09/28 08:50:25;;;;;;;3.95;2.45;;;15.10;99.90;;;;;;4997855;28;20060;-84
2021/09/28 08:52:52;;;;;;;7.45;2.80;;;15.20;99.90;;;;;;5015081;28;20511;-83
2021/09/28 08:55:22;;;;;;;5.97;2.40;;;15.30;99.90;;;;;;5014812;28;20049;-84
2021/09/28 08:57:50;;;;;;;3.38;2.42;;;15.20;99.90;;;;;;4997676;28;20442;-84
2021/09/28 09:00:17;;;;;;;5.70;4.10;;;15.40;99.90;;;;;;5015199;28;20453;-84
2021/09/28 09:02:46;;;;;;;5.55;3.65;;;15.30;99.90;;;;;;4997664;28;20054;-84
2021/09/28 09:05:17;;;;;;;18.27;12.80;;;15.40;99.90;;;;;;4997631;28;20077;-84
2021/09/28 09:07:58;;;;;;;5.70;3.28;;;15.40;99.90;;;;;;5015054;28;20046;-84
2021/09/28 09:10:27;;;;;;;10.18;6.22;;;15.40;99.90;;;;;;5014788;28;20484;-84
2021/09/28 09:12:55;;;;;;;6.22;4.68;;;15.60;99.90;;;;;;5015078;28;20132;-84
2021/09/28 09:15:29;;;;;;;8.02;2.70;;;15.80;99.90;;;;;;4997147;28;20054;-84
2021/09/28 09:18:07;;;;;;;8.05;3.13;;;16.00;99.90;;;;;;5014964;28;20152;-84
2021/09/28 09:20:40;;;;;;;3.38;2.13;;;15.90;99.90;;;;;;4997677;28;20108;-84
2021/09/28 09:23:25;;;;;;;6.80;2.67;;;15.90;99.90;;;;;;4997330;28;20077;-84
2021/09/28 09:26:20;;;;;;;5.72;5.10;;;15.90;99.90;;;;;;4997557;28;20050;-84
2021/09/28 09:28:52;;;;;;;4.18;2.63;;;15.80;99.90;;;;;;5010128;28;20113;-84
2021/09/28 09:31:34;;;;;;;7.03;2.95;;;16.00;99.90;;;;;;4998917;28;20137;-84
2021/09/28 09:34:06;;;;;;;4.30;2.40;;;15.80;99.90;;;;;;4997267;28;20107;-84
2021/09/28 09:36:33;;;;;;;6.10;3.60;;;15.90;99.90;;;;;;5014328;28;20118;-84
2021/09/28 09:39:03;;;;;;;7.13;6.13;;;15.90;99.90;;;;;;4996925;28;20049;-84
2021/09/28 09:41:31;;;;;;;11.07;4.70;;;15.90;99.90;;;;;;4997219;28;20057;-84
2021/09/28 09:44:08;;;;;;;5.72;2.55;;;15.60;99.90;;;;;;4996923;28;20140;-84
2021/09/28 09:46:47;;;;;;;5.03;2.35;;;16.00;99.90;;;;;;4996960;28;20061;-84
2021/09/28 09:49:20;;;;;;;7.05;2.33;;;16.00;99.90;;;;;;4997060;28;20058;-84
2021/09/28 09:51:49;;;;;;;7.50;3.10;;;16.00;99.90;;;;;;5014282;28;20491;-84
2021/09/28 09:54:17;;;;;;;5.57;2.33;;;16.00;99.90;;;;;;5014467;28;20145;-84
2021/09/28 09:56:51;;;;;;;7.70;2.83;;;16.00;99.90;;;;;;4996775;28;20050;-84
2021/09/28 09:59:21;;;;;;;5.53;2.80;;;16.00;99.90;;;;;;5013897;28;20145;-84
2021/09/28 10:01:49;;;;;;;4.85;2.65;;;16.00;99.90;;;;;;4996765;28;20054;-85
2021/09/28 10:04:18;;;;;;;7.30;2.83;;;16.10;99.90;;;;;;4996803;28;20054;-84
2021/09/28 10:06:46;;;;;;;4.32;2.38;;;16.10;99.90;;;;;;4996613;28;20085;-84
2021/09/28 10:09:38;;;;;;;4.95;2.65;;;16.10;99.90;;;;;;5014044;28;20049;-84
2021/09/28 10:12:09;;;;;;;4.00;2.17;;;16.10;99.90;;;;;;5013749;28;20053;-84
2021/09/28 10:14:39;;;;;;;4.75;2.72;;;16.20;99.90;;;;;;5013863;28;20082;-84
2021/09/28 10:17:34;;;;;;;5.15;2.67;;;16.20;99.90;;;;;;4997072;28;20049;-85
2021/09/28 10:20:04;;;;;;;4.57;2.97;;;16.20;99.90;;;;;;4996333;28;20056;-85
2021/09/28 10:22:52;;;;;;;6.13;3.03;;;16.20;99.90;;;;;;5014156;28;20138;-85
2021/09/28 10:25:22;;;;;;;5.93;2.83;;;16.20;99.90;;;;;;4996900;28;20087;-85
2021/09/28 10:28:15;;;;;;;6.97;2.70;;;16.00;99.90;;;;;;4996911;28;20132;-85
2021/09/28 10:30:44;;;;;;;8.48;3.40;;;15.90;99.90;;;;;;5013824;28;20054;-85
2021/09/28 10:33:11;;;;;;;7.63;3.00;;;15.70;99.90;;;;;;4996768;28;20045;-85
2021/09/28 10:36:07;;;;;;;6.90;3.38;;;15.70;99.90;;;;;;5016448;28;20042;-85
2021/09/28 10:39:02;;;;;;;7.97;3.22;;;15.60;99.90;;;;;;5010716;28;20552;-85
2021/09/28 10:41:35;;;;;;;8.10;3.55;;;15.50;99.90;;;;;;5008704;28;20077;-85
2021/09/28 10:44:39;;;;;;;7.15;3.08;;;15.40;99.90;;;;;;5009253;28;20506;-85
2021/09/28 10:47:09;;;;;;;7.35;2.65;;;15.60;99.90;;;;;;5008835;28;20077;-85
2021/09/28 10:49:46;;;;;;;6.97;3.05;;;15.70;99.90;;;;;;5008798;28;20046;-85
2021/09/28 10:52:19;;;;;;;4.65;2.60;;;15.80;99.90;;;;;;5018448;28;20509;-85
2021/09/28 10:55:12;;;;;;;5.20;2.93;;;15.90;99.90;;;;;;5000876;28;20100;-85
2021/09/28 10:57:54;;;;;;;6.57;2.50;;;16.10;99.90;;;;;;5003514;28;20289;-86
2021/09/28 11:00:29;;;;;;;2.47;2.25;;;16.20;99.90;;;;;;5001883;28;20046;-85
2021/09/28 11:02:58;;;;;;;6.18;2.67;;;16.50;99.90;;;;;;5019745;28;20050;-86
2021/09/28 11:05:31;;;;;;;4.70;2.65;;;16.70;99.90;;;;;;4998551;28;20073;-85
2021/09/28 11:08:00;;;;;;;5.13;2.53;;;16.70;99.90;;;;;;5018336;28;20057;-85
2021/09/28 11:10:55;;;;;;;4.38;2.53;;;16.60;99.90;;;;;;5012254;28;20110;-85
2021/09/28 11:13:28;;;;;;;4.20;2.53;;;16.50;99.90;;;;;;5019998;28;20459;-85
2021/09/28 11:16:10;;;;;;;3.25;2.45;;;16.60;99.90;;;;;;5322688;23;20127;-86
2021/09/28 11:18:56;;;;;;;3.28;2.67;;;16.60;99.90;;;;;;5068198;28;20049;-86
2021/09/28 11:21:25;;;;;;;5.93;2.42;;;16.40;99.90;;;;;;5036613;28;20136;-85
2021/09/28 11:23:54;;;;;;;5.70;2.78;;;16.20;99.90;;;;;;5059931;28;20096;-85
2021/09/28 11:26:32;;;;;;;9.05;2.97;;;16.20;99.90;;;;;;5037567;28;20049;-85
2021/09/28 11:29:00;;;;;;;6.07;2.53;;;16.20;99.90;;;;;;5036088;28;20076;-85
2021/09/28 11:31:33;;;;;;;4.45;2.63;;;16.30;99.90;;;;;;5037140;28;20549;-85
2021/09/28 11:34:00;;;;;;;11.52;2.60;;;16.20;99.90;;;;;;5036863;28;20053;-86
2021/09/28 11:36:32;;;;;;;6.65;3.33;;;16.30;99.90;;;;;;5052678;28;20061;-86
2021/09/28 11:39:00;;;;;;;8.38;3.35;;;16.20;99.90;;;;;;5036249;28;20441;-86
2021/09/28 11:41:27;;;;;;;6.38;2.97;;;16.20;99.90;;;;;;5052868;28;20482;-86
2021/09/28 11:43:56;;;;;;;6.18;2.33;;;16.40;99.90;;;;;;5037318;28;20049;-85
2021/09/28 11:46:26;;;;;;;5.40;2.53;;;16.30;99.90;;;;;;5052904;28;20111;-86
2021/09/28 11:48:59;;;;;;;2.60;2.00;;;16.50;99.90;;;;;;5037259;28;20053;-86
2021/09/28 11:51:34;;;;;;;3.90;2.20;;;16.80;99.90;;;;;;5035671;28;20057;-86
2021/09/28 11:54:44;;;;;;;3.78;1.67;;;17.00;99.90;;;;;;5048766;28;20037;-86
2021/09/28 11:57:13;;;;;;;3.28;1.90;;;17.30;99.90;;;;;;5037005;28;20053;-87
2021/09/28 11:59:44;;;;;;;8.10;2.40;;;17.30;99.90;;;;;;5041478;28;20029;-87
2021/09/28 12:02:13;;;;;;;5.68;2.30;;;17.40;99.90;;;;;;5060328;28;20049;-86
2021/09/28 12:05:25;;;;;;;2.60;1.95;;;17.30;99.90;;;;;;5048199;28;20076;-87
2021/09/28 12:08:00;;;;;;;8.52;2.25;;;17.30;99.90;;;;;;5036486;28;20095;-86
2021/09/28 12:10:35;;;;;;;7.95;3.10;;;17.10;99.90;;;;;;5035345;28;20060;-87
2021/09/28 12:13:16;;;;;;;6.57;2.30;;;16.80;99.90;;;;;;5036272;28;20045;-86
2021/09/28 12:16:03;;;;;;;4.13;2.00;;;16.50;99.90;;;;;;5051424;28;20388;-86
2021/09/28 12:18:31;;;;;;;9.30;2.30;;;16.50;99.90;;;;;;5034938;28;20056;-87
2021/09/28 12:21:21;;;;;;;5.13;2.00;;;16.50;99.90;;;;;;5050974;28;20124;-85
2021/09/28 12:24:12;;;;;;;9.88;2.90;;;16.50;99.90;;;;;;5034869;28;20128;-87
2021/09/28 12:26:39;;;;;;;7.00;2.28;;;16.30;99.90;;;;;;5036891;28;20147;-86
2021/09/28 12:29:21;;;;;;;8.13;2.30;;;16.10;99.90;;;;;;5036004;28;20050;-87
2021/09/28 12:31:49;;;;;;;4.10;2.17;;;16.00;99.90;;;;;;5035146;28;20433;-86
2021/09/28 12:34:16;;;;;;;2.58;1.90;;;16.00;99.90;;;;;;5035307;28;20053;-86
2021/09/28 12:36:43;;;;;;;2.75;1.73;;;15.90;99.90;;;;;;5034556;28;20050;-86
2021/09/28 12:39:15;;;;;;;4.43;1.60;;;15.90;99.90;;;;;;5034632;28;20049;-87
2021/09/28 12:42:06;;;;;;;5.88;1.70;;;15.90;99.90;;;;;;5034701;28;20124;-86
2021/09/28 12:44:34;;;;;;;5.03;1.50;;;16.10;99.90;;;;;;5036272;28;20553;-87
2021/09/28 12:47:21;;;;;;;3.58;1.50;;;16.30;99.90;;;;;;5037736;28;20045;-86
2021/09/28 12:49:47;;;;;;;11.82;2.25;;;16.50;99.90;;;;;;5034535;28;20132;-87
2021/09/28 12:52:14;;;;;;;5.72;1.58;;;17.00;99.90;;;;;;5034761;28;20081;-87
2021/09/28 12:54:41;;;;;;;3.65;1.65;;;17.10;99.90;;;;;;5034775;28;20072;-87
2021/09/28 12:57:08;;;;;;;7.03;2.10;;;17.30;99.90;;;;;;5034197;28;20447;-86
2021/09/28 12:59:35;;;;;;;5.50;1.38;;;17.60;99.90;;;;;;5035372;28;20053;-86